createdAt,value
2019-02-16T00:01:12.292Z,36.37
2019-02-16T00:03:46.149Z,37.03
2019-02-16T00:06:19.695Z,33.83
2019-02-16T00:08:53.638Z,35.27
2019-02-16T00:11:27.501Z,35.67
2019-02-16T00:14:01.489Z,36.90
2019-02-16T00:16:35.359Z,39.87
2019-02-16T00:19:08.967Z,38.48
2019-02-16T00:21:42.837Z,35.63
2019-02-16T00:24:16.275Z,36.00
2019-02-16T00:26:50.064Z,33.20
2019-02-16T00:29:23.747Z,34.70
2019-02-16T00:31:57.585Z,33.10
2019-02-16T00:34:31.144Z,35.70
2019-02-16T00:37:04.781Z,35.40
2019-02-16T00:39:38.584Z,35.77
2019-02-16T00:42:12.298Z,36.40
2019-02-16T00:44:46.261Z,38.03
2019-02-16T00:47:19.962Z,36.80
2019-02-16T00:49:53.728Z,37.37
2019-02-16T00:52:27.269Z,38.17
2019-02-16T00:55:46.489Z,39.23
2019-02-16T00:57:43.536Z,38.63
2019-02-16T01:00:17.118Z,35.37
2019-02-16T01:02:50.601Z,36.07
2019-02-16T01:05:24.285Z,38.53
2019-02-16T01:07:59.241Z,38.17
2019-02-16T01:10:34.784Z,34.33
2019-02-16T01:13:08.535Z,36.53
2019-02-16T01:15:43.322Z,35.47
2019-02-16T01:18:17.138Z,35.47
2019-02-16T01:20:50.935Z,35.93
2019-02-16T01:23:25.086Z,35.37
2019-02-16T01:25:58.816Z,31.30
2019-02-16T01:28:35.239Z,33.17
2019-02-16T01:31:10.443Z,31.33
2019-02-16T01:33:45.596Z,30.68
2019-02-16T01:36:20.529Z,27.95
2019-02-16T01:38:54.187Z,31.10
2019-02-16T01:41:27.954Z,32.47
2019-02-16T01:44:01.838Z,29.10
2019-02-16T01:46:35.433Z,30.83
2019-02-16T01:49:09.162Z,29.23
2019-02-16T01:51:42.944Z,31.70
2019-02-16T01:54:16.591Z,31.43
2019-02-16T01:56:50.483Z,31.93
2019-02-16T01:59:24.141Z,32.70
2019-02-16T02:01:57.998Z,28.63
2019-02-16T02:04:31.946Z,29.97
2019-02-16T02:07:06.209Z,30.20
2019-02-16T02:09:40.614Z,29.23
2019-02-16T02:12:15.656Z,32.95
2019-02-16T02:15:05.022Z,30.35
2019-02-16T02:17:39.232Z,32.07
2019-02-16T02:20:13.730Z,31.43
2019-02-16T02:22:48.044Z,32.00
2019-02-16T02:25:23.929Z,34.80
2019-02-16T02:27:58.025Z,33.37
2019-02-16T02:30:33.299Z,32.87
2019-02-16T02:33:07.395Z,35.97
2019-02-16T02:35:41.449Z,32.77
2019-02-16T02:38:16.477Z,29.65
2019-02-16T02:40:50.491Z,27.86
2019-02-16T02:43:24.788Z,28.75
2019-02-16T02:45:59.176Z,29.37
2019-02-16T02:48:33.100Z,28.03
2019-02-16T02:51:07.594Z,27.10
2019-02-16T02:53:41.773Z,25.93
2019-02-16T02:56:15.764Z,25.93
2019-02-16T02:58:51.267Z,25.13
2019-02-16T03:01:26.893Z,27.17
2019-02-16T03:04:01.080Z,24.53
2019-02-16T03:06:35.199Z,26.27
2019-02-16T03:09:09.549Z,27.57
2019-02-16T03:11:43.600Z,26.23
2019-02-16T03:14:23.987Z,26.20
2019-02-16T03:16:55.866Z,26.87
2019-02-16T03:19:30.374Z,25.60
2019-02-16T03:22:04.899Z,28.33
2019-02-16T03:24:38.981Z,29.47
2019-02-16T03:27:30.933Z,28.33
2019-02-16T03:30:29.207Z,27.97
2019-02-16T03:33:08.959Z,29.83
2019-02-16T03:36:08.613Z,28.30
2019-02-16T03:38:50.651Z,31.50
2019-02-16T03:41:25.107Z,31.37
2019-02-16T03:43:59.556Z,32.63
2019-02-16T03:46:33.963Z,30.73
2019-02-16T03:49:08.359Z,29.70
2019-02-16T03:51:45.895Z,29.73
2019-02-16T03:54:22.507Z,33.13
2019-02-16T03:56:57.272Z,31.02
2019-02-16T03:59:31.494Z,31.60
2019-02-16T04:02:05.795Z,33.00
2019-02-16T04:04:40.133Z,32.33
2019-02-16T04:07:14.532Z,33.73
2019-02-16T04:09:48.855Z,33.13
2019-02-16T04:12:23.125Z,32.50
2019-02-16T04:14:57.407Z,33.48
2019-02-16T04:17:31.728Z,31.23
2019-02-16T04:20:06.912Z,30.90
2019-02-16T04:22:43.397Z,29.50
2019-02-16T04:25:19.251Z,27.40
2019-02-16T04:27:53.644Z,23.47
2019-02-16T04:30:29.708Z,24.20
2019-02-16T04:33:04.414Z,21.97
2019-02-16T04:35:38.773Z,22.23
2019-02-16T04:38:13.717Z,29.80
2019-02-16T04:40:48.558Z,25.37
2019-02-16T04:43:22.445Z,26.80
2019-02-16T04:45:57.059Z,23.20
2019-02-16T04:48:31.937Z,24.40
2019-02-16T04:51:06.026Z,24.13
2019-02-16T04:53:40.918Z,25.33
2019-02-16T04:56:15.400Z,27.80
2019-02-16T04:58:51.386Z,24.93
2019-02-16T05:01:25.879Z,25.43
2019-02-16T05:04:00.220Z,24.60
2019-02-16T05:06:34.686Z,24.73
2019-02-16T05:09:09.158Z,24.18
2019-02-16T05:11:43.795Z,24.63
2019-02-16T05:14:18.254Z,25.23
2019-02-16T05:16:52.717Z,25.47
2019-02-16T05:19:28.667Z,25.76
2019-02-16T05:22:04.908Z,25.60
2019-02-16T05:24:39.375Z,25.47
2019-02-16T05:27:15.386Z,24.20
2019-02-16T05:29:49.753Z,23.33
2019-02-16T05:32:25.962Z,22.43
2019-02-16T05:35:02.520Z,22.07
2019-02-16T05:37:36.620Z,21.95
2019-02-16T05:40:12.078Z,21.63
2019-02-16T05:42:46.401Z,19.52
2019-02-16T05:45:20.774Z,20.93
2019-02-16T05:48:00.166Z,20.27
2019-02-16T05:50:34.548Z,20.30
2019-02-16T05:53:11.736Z,21.20
2019-02-16T05:55:46.443Z,21.53
2019-02-16T05:58:21.257Z,17.70
2019-02-16T06:00:55.589Z,20.68
2019-02-16T06:03:30.438Z,20.23
2019-02-16T06:06:04.917Z,20.63
2019-02-16T06:08:39.336Z,21.27
2019-02-16T06:11:17.437Z,19.05
2019-02-16T06:13:53.596Z,19.87
2019-02-16T06:16:29.168Z,20.10
2019-02-16T06:19:05.045Z,19.00
2019-02-16T06:21:40.367Z,20.77
2019-02-16T06:24:16.941Z,20.83
2019-02-16T06:26:51.872Z,20.53
2019-02-16T06:29:26.245Z,20.47
2019-02-16T06:32:00.812Z,19.97
2019-02-16T06:34:37.540Z,22.33
2019-02-16T06:37:12.444Z,20.90
2019-02-16T06:39:47.182Z,18.82
2019-02-16T06:42:21.741Z,17.63
2019-02-16T06:44:56.667Z,19.15
2019-02-16T06:47:31.669Z,19.03
2019-02-16T06:50:06.558Z,18.57
2019-02-16T06:52:41.098Z,18.60
2019-02-16T06:55:16.325Z,18.30
2019-02-16T06:57:50.943Z,18.20
2019-02-16T07:00:27.825Z,17.17
2019-02-16T07:03:02.201Z,16.80
2019-02-16T07:05:36.504Z,14.43
2019-02-16T07:08:11.304Z,14.60
2019-02-16T07:10:45.702Z,15.57
2019-02-16T07:13:20.819Z,15.43
2019-02-16T07:15:54.836Z,13.20
2019-02-16T07:18:29.262Z,14.57
2019-02-16T07:21:03.561Z,12.37
2019-02-16T07:23:37.753Z,14.17
2019-02-16T07:26:13.962Z,12.67
2019-02-16T07:28:48.260Z,15.40
2019-02-16T07:31:23.894Z,13.95
2019-02-16T07:33:58.674Z,14.38
2019-02-16T07:36:33.785Z,13.53
2019-02-16T07:39:09.443Z,14.17
2019-02-16T07:41:44.213Z,14.20
2019-02-16T07:44:19.516Z,14.63
2019-02-16T07:46:53.488Z,14.40
2019-02-16T07:49:28.439Z,14.15
2019-02-16T07:52:04.897Z,14.17
2019-02-16T07:54:39.961Z,15.27
2019-02-16T07:57:14.959Z,15.93
2019-02-16T07:59:49.494Z,15.50
2019-02-16T08:02:24.432Z,15.23
2019-02-16T08:04:59.288Z,15.88
2019-02-16T08:07:33.738Z,14.63
2019-02-16T08:10:09.999Z,16.10
2019-02-16T08:12:47.579Z,16.97
2019-02-16T08:15:23.398Z,17.00
2019-02-16T08:17:59.217Z,17.03
2019-02-16T08:20:33.627Z,16.87
2019-02-16T08:23:08.088Z,16.40
2019-02-16T08:25:44.028Z,16.77
2019-02-16T08:28:20.871Z,17.07
2019-02-16T08:30:57.356Z,16.03
2019-02-16T08:33:32.337Z,18.20
2019-02-16T08:36:07.066Z,18.30
2019-02-16T08:38:43.187Z,17.90
2019-02-16T08:41:17.587Z,19.53
2019-02-16T08:43:52.804Z,18.47
2019-02-16T08:46:28.002Z,18.90
2019-02-16T08:49:03.056Z,18.37
2019-02-16T08:51:37.429Z,17.63
2019-02-16T08:54:11.544Z,17.20
2019-02-16T08:56:48.024Z,18.27
2019-02-16T08:59:26.049Z,17.35
2019-02-16T09:02:02.409Z,15.63
2019-02-16T09:04:36.638Z,14.77
2019-02-16T09:07:11.710Z,15.03
2019-02-16T09:09:46.119Z,15.07
2019-02-16T09:12:24.757Z,14.33
2019-02-16T09:15:03.220Z,13.80
2019-02-16T09:17:42.043Z,13.00
2019-02-16T09:20:17.668Z,13.28
2019-02-16T09:22:53.104Z,13.53
2019-02-16T09:25:28.942Z,14.40
2019-02-16T09:28:05.494Z,13.63
2019-02-16T09:30:42.661Z,13.10
2019-02-16T09:33:18.654Z,14.97
2019-02-16T09:35:54.570Z,17.47
2019-02-16T09:38:33.621Z,16.25
2019-02-16T09:41:09.684Z,16.73
2019-02-16T09:43:45.592Z,17.73
2019-02-16T09:46:21.588Z,18.73
2019-02-16T09:48:58.505Z,18.53
2019-02-16T09:51:36.691Z,20.57
2019-02-16T09:54:12.180Z,20.63
2019-02-16T09:56:47.300Z,20.57
2019-02-16T09:59:24.688Z,19.93
2019-02-16T10:02:02.714Z,20.32
2019-02-16T10:04:38.171Z,20.62
2019-02-16T10:07:15.970Z,20.60
2019-02-16T10:09:51.501Z,19.30
2019-02-16T10:12:27.237Z,19.93
2019-02-16T10:15:21.898Z,19.50
2019-02-16T10:17:58.139Z,18.70
2019-02-16T10:20:33.751Z,17.23
2019-02-16T10:23:09.323Z,19.60
2019-02-16T10:25:48.876Z,19.03
2019-02-16T10:28:23.726Z,20.17
2019-02-16T10:30:58.186Z,19.70
2019-02-16T10:33:33.676Z,20.87
2019-02-16T10:36:08.959Z,18.50
2019-02-16T10:38:44.427Z,19.60
2019-02-16T10:41:19.446Z,20.77
2019-02-16T10:43:54.270Z,19.93
2019-02-16T10:46:31.950Z,19.53
2019-02-16T10:49:09.866Z,19.10
2019-02-16T10:51:48.057Z,19.70
2019-02-16T10:54:28.122Z,18.50
2019-02-16T10:56:59.526Z,19.67
2019-02-16T10:59:34.066Z,19.90
2019-02-16T11:02:08.583Z,19.50
2019-02-16T11:04:47.327Z,19.87
2019-02-16T11:07:21.781Z,19.07
2019-02-16T11:10:09.304Z,17.70
2019-02-16T11:12:44.518Z,18.70
2019-02-16T11:15:19.924Z,18.87
2019-02-16T11:17:57.589Z,20.90
2019-02-16T11:20:33.150Z,19.40
2019-02-16T11:23:08.207Z,19.13
2019-02-16T11:25:46.221Z,19.17
2019-02-16T11:28:24.433Z,20.43
2019-02-16T11:31:00.050Z,17.73
2019-02-16T11:33:35.156Z,18.60
2019-02-16T11:36:11.115Z,17.17
2019-02-16T11:38:46.444Z,15.17
2019-02-16T11:41:24.023Z,15.55
2019-02-16T11:44:01.354Z,17.97
2019-02-16T11:46:36.699Z,16.40
2019-02-16T11:49:12.281Z,17.32
2019-02-16T11:51:50.770Z,17.90
2019-02-16T11:54:27.216Z,16.67
2019-02-16T11:57:03.075Z,17.48
2019-02-16T11:59:39.324Z,18.37
2019-02-16T12:02:16.399Z,16.63
2019-02-16T12:04:51.712Z,16.57
2019-02-16T12:07:29.704Z,17.17
2019-02-16T12:10:05.494Z,18.85
2019-02-16T12:12:40.766Z,18.33
2019-02-16T12:15:15.692Z,17.47
2019-02-16T12:17:53.056Z,17.17
2019-02-16T12:20:33.687Z,16.40
2019-02-16T12:23:13.261Z,18.17
2019-02-16T12:25:48.191Z,16.80
2019-02-16T12:28:29.106Z,16.47
2019-02-16T12:31:01.770Z,16.37
2019-02-16T12:33:36.905Z,16.35
2019-02-16T12:36:14.667Z,17.82
2019-02-16T12:38:49.788Z,16.50
2019-02-16T12:41:25.177Z,16.30
2019-02-16T12:44:00.800Z,15.60
2019-02-16T12:46:39.601Z,13.60
2019-02-16T12:49:15.060Z,13.78
2019-02-16T12:51:52.793Z,13.53
2019-02-16T12:54:28.440Z,13.83
2019-02-16T12:57:04.456Z,13.45
2019-02-16T12:59:43.968Z,13.73
2019-02-16T13:02:19.755Z,12.10
2019-02-16T13:04:55.571Z,12.47
2019-02-16T13:07:31.018Z,13.33
2019-02-16T13:10:13.768Z,12.70
2019-02-16T13:12:49.367Z,12.67
2019-02-16T13:15:27.204Z,14.00
2019-02-16T13:18:02.279Z,12.73
2019-02-16T13:20:40.005Z,13.23
2019-02-16T13:23:16.088Z,12.77
2019-02-16T13:25:52.387Z,13.10
2019-02-16T13:28:30.826Z,13.33
2019-02-16T13:31:08.872Z,13.20
2019-02-16T13:33:47.457Z,13.27
2019-02-16T13:36:25.779Z,12.87
2019-02-16T13:39:02.011Z,12.95
2019-02-16T13:41:44.799Z,12.40
2019-02-16T13:44:21.632Z,11.63
2019-02-16T13:46:57.560Z,11.53
2019-02-16T13:49:36.382Z,11.67
2019-02-16T13:52:12.444Z,12.50
2019-02-16T13:54:48.420Z,12.43
2019-02-16T13:57:23.991Z,12.17
2019-02-16T14:00:01.600Z,11.75
2019-02-16T14:02:36.466Z,12.33
2019-02-16T14:05:11.628Z,12.30
2019-02-16T14:07:46.879Z,12.85
2019-02-16T14:10:22.025Z,13.63
2019-02-16T14:12:56.923Z,12.53
2019-02-16T14:15:38.894Z,12.83
2019-02-16T14:18:14.382Z,11.93
2019-02-16T14:20:54.181Z,13.22
2019-02-16T14:23:29.606Z,13.23
2019-02-16T14:26:04.689Z,13.07
2019-02-16T14:28:40.278Z,13.80
2019-02-16T14:31:15.647Z,14.00
2019-02-16T14:33:50.701Z,12.80
2019-02-16T14:36:25.684Z,12.37
2019-02-16T14:39:01.924Z,12.55
2019-02-16T14:41:36.527Z,12.90
2019-02-16T14:44:11.621Z,12.75
2019-02-16T14:46:52.044Z,12.93
2019-02-16T14:49:32.931Z,12.17
2019-02-16T14:52:07.682Z,11.97
2019-02-16T14:54:45.598Z,11.70
2019-02-16T14:57:23.081Z,12.77
2019-02-16T14:59:59.093Z,11.57
2019-02-16T15:02:34.286Z,11.20
2019-02-16T15:05:10.431Z,10.68
2019-02-16T15:07:45.778Z,10.33
2019-02-16T15:10:21.285Z,11.90
2019-02-16T15:12:56.413Z,11.87
2019-02-16T15:15:32.150Z,11.60
2019-02-16T15:18:07.285Z,10.80
2019-02-16T15:20:45.895Z,9.73
2019-02-16T15:23:21.378Z,10.32
2019-02-16T15:26:01.168Z,10.83
2019-02-16T15:28:34.664Z,10.77
2019-02-16T15:31:12.816Z,10.37
2019-02-16T15:33:53.155Z,10.10
2019-02-16T15:36:24.746Z,10.27
2019-02-16T15:39:09.368Z,9.87
2019-02-16T15:41:44.793Z,9.63
2019-02-16T15:44:20.092Z,10.30
2019-02-16T15:46:55.487Z,9.47
2019-02-16T15:49:32.132Z,9.43
2019-02-16T15:52:13.852Z,9.53
2019-02-16T15:54:54.003Z,10.40
2019-02-16T15:57:31.306Z,9.97
2019-02-16T16:00:09.499Z,9.40
2019-02-16T16:02:44.478Z,9.20
2019-02-16T16:05:30.105Z,9.80
2019-02-16T16:08:07.512Z,10.80
2019-02-16T16:10:42.990Z,9.57
2019-02-16T16:13:18.540Z,9.80
2019-02-16T16:15:53.769Z,9.60
2019-02-16T16:18:29.179Z,9.30
2019-02-16T16:21:06.150Z,9.07
2019-02-16T16:23:41.612Z,9.17
2019-02-16T16:26:19.822Z,9.90
2019-02-16T16:29:00.418Z,9.90
2019-02-16T16:31:31.033Z,9.97
2019-02-16T16:34:09.183Z,9.70
2019-02-16T16:36:42.553Z,9.27
2019-02-16T16:39:17.852Z,9.10
2019-02-16T16:41:55.357Z,9.37
2019-02-16T16:44:37.049Z,9.90
2019-02-16T16:47:20.206Z,9.93
2019-02-16T16:49:53.400Z,10.23
2019-02-16T16:52:33.284Z,10.27
2019-02-16T16:55:11.222Z,9.83
2019-02-16T16:57:44.224Z,10.27
2019-02-16T17:00:21.252Z,9.63
2019-02-16T17:02:55.244Z,10.43
2019-02-16T17:05:32.140Z,10.43
2019-02-16T17:08:11.581Z,10.10
2019-02-16T17:10:46.194Z,10.27
2019-02-16T17:13:20.673Z,9.83
2019-02-16T17:15:54.943Z,10.33
2019-02-16T17:18:32.742Z,9.43
2019-02-16T17:21:07.245Z,10.20
2019-02-16T17:23:42.037Z,8.73
2019-02-16T17:26:22.266Z,9.77
2019-02-16T17:28:56.728Z,9.30
2019-02-16T17:31:31.386Z,9.40
2019-02-16T17:34:09.198Z,8.80
2019-02-16T17:36:42.965Z,10.13
2019-02-16T17:39:17.648Z,8.73
2019-02-16T17:41:52.984Z,8.90
2019-02-16T17:44:27.697Z,9.10
2019-02-16T17:47:02.147Z,9.17
2019-02-16T17:49:42.909Z,10.17
2019-02-16T17:52:15.563Z,10.03
2019-02-16T17:54:50.381Z,9.57
2019-02-16T17:57:27.231Z,9.33
2019-02-16T18:00:01.846Z,9.77
2019-02-16T18:02:36.738Z,9.90
2019-02-16T18:05:13.813Z,9.63
2019-02-16T18:07:48.882Z,9.67
2019-02-16T18:10:23.431Z,9.57
2019-02-16T18:12:58.682Z,8.80
2019-02-16T18:15:34.201Z,7.80
2019-02-16T18:18:11.331Z,8.78
2019-02-16T18:20:48.831Z,8.05
2019-02-16T18:23:23.167Z,9.30
2019-02-16T18:25:57.424Z,9.43
2019-02-16T18:28:35.259Z,8.97
2019-02-16T18:31:07.754Z,8.47
2019-02-16T18:33:42.321Z,9.40
2019-02-16T18:36:17.103Z,8.93
2019-02-16T18:38:51.673Z,9.60
2019-02-16T18:41:26.178Z,8.63
2019-02-16T18:44:04.181Z,8.50
2019-02-16T18:46:35.700Z,8.03
2019-02-16T18:49:10.822Z,8.13
2019-02-16T18:51:45.235Z,7.73
2019-02-16T18:54:19.653Z,8.43
2019-02-16T18:57:06.021Z,8.23
2019-02-16T18:59:35.486Z,8.60
2019-02-16T19:02:09.795Z,8.43
2019-02-16T19:04:44.207Z,8.40
2019-02-16T19:07:18.593Z,7.43
2019-02-16T19:09:53.120Z,7.10
2019-02-16T19:12:27.617Z,7.20
2019-02-16T19:15:05.172Z,6.73
2019-02-16T19:17:39.909Z,6.75
2019-02-16T19:20:14.426Z,6.60
2019-02-16T19:22:52.640Z,7.08
2019-02-16T19:25:26.171Z,6.97
2019-02-16T19:28:01.365Z,6.77
2019-02-16T19:30:35.741Z,7.07
2019-02-16T19:33:10.563Z,6.85
2019-02-16T19:35:45.196Z,7.05
2019-02-16T19:38:20.029Z,7.28
2019-02-16T19:40:54.492Z,6.87
2019-02-16T19:43:28.885Z,6.17
2019-02-16T19:46:05.450Z,6.73
2019-02-16T19:48:39.723Z,6.78
2019-02-16T19:51:14.100Z,6.60
2019-02-16T19:53:48.502Z,6.60
2019-02-16T19:56:23.035Z,5.93
2019-02-16T19:58:57.539Z,6.10
2019-02-16T20:01:31.863Z,6.33
2019-02-16T20:04:06.542Z,5.93
2019-02-16T20:06:41.045Z,6.27
2019-02-16T20:09:15.393Z,6.00
2019-02-16T20:11:49.581Z,6.20
2019-02-16T20:14:23.923Z,6.13
2019-02-16T20:16:58.200Z,6.33
2019-02-16T20:19:38.205Z,6.00
2019-02-16T20:22:12.685Z,6.25
2019-02-16T20:24:46.900Z,6.97
2019-02-16T20:27:21.372Z,6.22
2019-02-16T20:29:55.792Z,6.25
2019-02-16T20:32:30.337Z,6.80
2019-02-16T20:35:04.509Z,5.73
2019-02-16T20:37:39.426Z,5.95
2019-02-16T20:40:16.140Z,5.95
2019-02-16T20:42:50.232Z,5.57
2019-02-16T20:45:26.447Z,5.53
2019-02-16T20:48:00.696Z,5.07
2019-02-16T20:50:35.158Z,5.65
2019-02-16T20:53:09.306Z,6.23
2019-02-16T20:55:43.522Z,5.53
2019-02-16T20:58:17.784Z,5.47
2019-02-16T21:03:54.892Z,5.17
2019-02-16T21:06:29.029Z,5.53
2019-02-16T21:09:03.382Z,5.33
2019-02-16T21:11:37.933Z,5.67
2019-02-16T21:14:12.360Z,5.95
2019-02-16T21:16:46.425Z,5.67
2019-02-16T21:19:22.313Z,6.33
2019-02-16T21:21:56.950Z,6.10
2019-02-16T21:24:31.067Z,6.27
2019-02-16T21:27:05.009Z,6.10
2019-02-16T21:29:40.976Z,6.50
2019-02-16T21:32:16.517Z,6.57
2019-02-16T21:34:51.887Z,5.57
2019-02-16T21:37:25.637Z,6.23
2019-02-16T21:40:01.091Z,5.70
2019-02-16T21:42:36.144Z,7.20
2019-02-16T21:45:09.939Z,6.00
2019-02-16T21:47:43.796Z,5.60
2019-02-16T21:50:17.586Z,5.63
2019-02-16T21:52:51.844Z,5.78
2019-02-16T21:55:25.745Z,5.97
2019-02-16T21:58:07.788Z,6.03
2019-02-16T22:00:34.222Z,5.90
2019-02-16T22:03:07.940Z,6.10
2019-02-16T22:05:41.198Z,6.00
2019-02-16T22:08:16.010Z,5.77
2019-02-16T22:10:49.639Z,6.67
2019-02-16T22:13:23.382Z,6.83
2019-02-16T22:15:58.498Z,6.33
2019-02-16T22:18:32.279Z,6.83
2019-02-16T22:21:06.292Z,6.43
2019-02-16T22:23:39.778Z,6.30
2019-02-16T22:26:13.344Z,5.93
2019-02-16T22:28:47.284Z,6.97
2019-02-16T22:31:21.162Z,6.80
2019-02-16T22:33:54.982Z,7.07
2019-02-16T22:36:28.531Z,6.60
2019-02-16T22:39:02.335Z,6.83
2019-02-16T22:41:36.063Z,7.13
2019-02-16T22:44:09.679Z,7.60
2019-02-16T22:46:44.555Z,7.03
2019-02-16T22:49:19.485Z,7.30
2019-02-16T22:51:56.858Z,8.03
2019-02-16T22:54:30.437Z,7.13
2019-02-16T22:57:04.800Z,7.40
2019-02-16T22:59:38.424Z,8.00
2019-02-16T23:02:12.830Z,8.00
2019-02-16T23:04:48.951Z,8.00
2019-02-16T23:07:25.107Z,8.10
2019-02-16T23:09:58.923Z,8.90
2019-02-16T23:12:32.539Z,8.67
2019-02-16T23:15:06.639Z,8.57
2019-02-16T23:17:41.541Z,9.20
2019-02-16T23:20:15.759Z,9.30
2019-02-16T23:22:49.410Z,9.85
2019-02-16T23:25:23.157Z,10.10
2019-02-16T23:27:58.271Z,10.20
2019-02-16T23:30:32.043Z,10.73
2019-02-16T23:33:06.545Z,10.83
2019-02-16T23:35:40.672Z,11.23
2019-02-16T23:38:15.771Z,11.57
2019-02-16T23:40:49.334Z,11.90
2019-02-16T23:43:23.424Z,12.93
2019-02-16T23:45:59.603Z,13.33
2019-02-16T23:48:34.045Z,13.97
2019-02-16T23:51:09.668Z,14.58
2019-02-16T23:53:45.529Z,14.90
2019-02-16T23:56:21.891Z,13.23
2019-02-16T23:58:57.398Z,15.50
